Time;durP1;ratioP1;P1;durP2;ratioP2;P2;SDS_P1;SDS_P2;PMS_P1;PMS_P2;Temp;Humidity;BMP_temperature;BMP_pressure;BME280_temperature;BME280_humidity;BME280_pressure;Samples;Min_cycle;Max_cycle;Signal;HPM_P1;HPM_P2
2023/07/30 00:00:02;;;;;;;4.90;3.92;;;;;;;15.99;100.00;100038.81;4939128;29;20099;-81
2023/07/30 00:02:29;;;;;;;4.80;4.30;;;;;;;15.94;100.00;100039.06;4931685;28;20130;-80
2023/07/30 00:04:55;;;;;;;5.10;3.65;;;;;;;15.88;100.00;100046.50;4955871;28;20473;-80
2023/07/30 00:07:22;;;;;;;5.03;3.80;;;;;;;15.87;100.00;100053.63;4939124;28;20115;-81
2023/07/30 00:09:49;;;;;;;4.28;3.58;;;;;;;15.84;100.00;100048.47;4935271;28;20126;-82
2023/07/30 00:12:15;;;;;;;4.32;3.60;;;;;;;15.82;100.00;100039.72;4979526;28;20097;-81
2023/07/30 00:14:43;;;;;;;5.60;4.18;;;;;;;15.83;100.00;100045.91;4914665;28;20047;-82
2023/07/30 00:17:09;;;;;;;4.53;4.13;;;;;;;15.81;100.00;100045.97;5005267;28;20125;-82
2023/07/30 00:19:36;;;;;;;5.88;4.25;;;;;;;15.86;100.00;100043.91;5000313;28;20448;-81
2023/07/30 00:22:03;;;;;;;6.53;4.07;;;;;;;15.74;100.00;100040.09;4947105;28;20068;-81
2023/07/30 00:24:30;;;;;;;4.28;3.88;;;;;;;15.73;100.00;100049.03;5001206;28;20419;-82
2023/07/30 00:26:56;;;;;;;5.90;4.05;;;;;;;15.76;100.00;100035.56;4902265;28;20305;-81
2023/07/30 00:29:23;;;;;;;4.65;4.20;;;;;;;15.72;100.00;100042.00;4915041;28;20485;-81
2023/07/30 00:31:50;;;;;;;4.35;3.85;;;;;;;15.71;100.00;100050.91;4932623;28;20493;-81
2023/07/30 00:34:16;;;;;;;5.88;4.15;;;;;;;15.68;100.00;100042.22;4948751;28;20044;-81
2023/07/30 00:36:43;;;;;;;4.38;3.97;;;;;;;15.64;100.00;100041.53;4944487;28;20043;-81
2023/07/30 00:39:11;;;;;;;5.00;4.22;;;;;;;15.57;100.00;100045.41;5006351;28;20476;-81
2023/07/30 00:41:38;;;;;;;4.28;3.88;;;;;;;15.59;100.00;100048.84;4961798;28;20045;-81
2023/07/30 00:44:05;;;;;;;4.72;4.22;;;;;;;15.56;100.00;100054.34;4932450;28;20078;-80
2023/07/30 00:46:32;;;;;;;4.03;3.55;;;;;;;15.54;100.00;100063.31;4956040;28;20040;-82
2023/07/30 00:48:59;;;;;;;4.68;3.85;;;;;;;15.48;100.00;100053.84;4910491;28;20041;-81
2023/07/30 00:51:26;;;;;;;4.78;4.28;;;;;;;15.51;100.00;100053.69;4900335;28;20594;-82
2023/07/30 00:53:53;;;;;;;4.13;3.72;;;;;;;15.48;100.00;100052.06;4932123;28;20047;-80
2023/07/30 00:56:19;;;;;;;4.65;4.20;;;;;;;15.48;100.00;100062.69;4918270;28;20408;-80
2023/07/30 00:58:48;;;;;;;4.70;3.67;;;;;;;15.48;100.00;100061.84;4923099;28;20066;-82
2023/07/30 01:01:15;;;;;;;4.40;3.85;;;;;;;15.47;100.00;100060.97;4991706;28;20048;-82
2023/07/30 01:03:42;;;;;;;4.95;3.80;;;;;;;15.48;100.00;100045.88;4919865;28;20047;-81
2023/07/30 01:06:09;;;;;;;4.72;4.00;;;;;;;15.58;100.00;100052.44;4922116;28;20044;-82
2023/07/30 01:08:36;;;;;;;4.70;3.80;;;;;;;15.46;100.00;100064.56;4992137;28;20076;-81
2023/07/30 01:11:03;;;;;;;4.90;4.00;;;;;;;15.37;100.00;100059.69;4932154;28;20048;-81
2023/07/30 01:13:30;;;;;;;4.63;3.80;;;;;;;15.28;100.00;100064.63;5026780;28;20583;-81
2023/07/30 01:15:57;;;;;;;4.65;3.78;;;;;;;15.27;100.00;100060.22;4905879;28;20394;-81
2023/07/30 01:18:24;;;;;;;5.15;3.63;;;;;;;15.32;100.00;100059.06;4906068;28;21949;-82
2023/07/30 01:20:53;;;;;;;4.47;3.20;;;;;;;15.31;100.00;100064.47;4902119;28;20048;-81
2023/07/30 01:23:21;;;;;;;5.07;3.50;;;;;;;15.17;100.00;100063.34;4904983;28;20071;-81
2023/07/30 01:25:49;;;;;;;3.90;3.58;;;;;;;15.20;100.00;100055.19;4913212;28;20047;-82
2023/07/30 01:28:17;;;;;;;4.70;3.60;;;;;;;15.12;100.00;100064.50;4926704;28;20037;-81
2023/07/30 01:30:45;;;;;;;4.45;3.55;;;;;;;15.06;100.00;100068.34;4907953;28;20058;-80
2023/07/30 01:33:12;;;;;;;4.28;3.20;;;;;;;15.11;100.00;100071.63;5008710;28;20065;-81
2023/07/30 01:35:41;;;;;;;4.65;3.92;;;;;;;15.06;100.00;100071.00;4937908;28;20059;-80
2023/07/30 01:38:09;;;;;;;3.95;3.25;;;;;;;15.02;100.00;100074.72;4934232;28;20040;-82
2023/07/30 01:40:35;;;;;;;4.07;3.35;;;;;;;15.01;100.00;100069.47;4938393;28;20572;-81
2023/07/30 01:43:02;;;;;;;4.55;3.72;;;;;;;14.99;100.00;100074.88;4928317;28;20048;-81
2023/07/30 01:45:29;;;;;;;5.22;3.65;;;;;;;14.96;100.00;100074.16;5000170;28;20094;-81
2023/07/30 01:47:56;;;;;;;3.55;3.25;;;;;;;14.88;100.00;100077.16;4935654;28;20047;-82
2023/07/30 01:50:22;;;;;;;3.60;3.17;;;;;;;14.86;100.00;100074.59;4993680;28;20122;-82
2023/07/30 01:52:50;;;;;;;3.70;3.10;;;;;;;14.75;100.00;100068.94;4941209;28;20040;-80
2023/07/30 01:55:17;;;;;;;4.00;3.55;;;;;;;14.68;100.00;100067.47;4923059;28;20062;-81
2023/07/30 01:57:44;;;;;;;5.20;3.15;;;;;;;14.64;100.00;100073.91;5005850;28;20552;-81
2023/07/30 02:00:11;;;;;;;4.45;3.35;;;;;;;14.61;100.00;100074.88;4910454;28;20064;-81
2023/07/30 02:02:38;;;;;;;3.88;3.17;;;;;;;14.57;100.00;100068.00;4935851;28;20043;-82
2023/07/30 02:05:05;;;;;;;4.00;3.03;;;;;;;14.50;100.00;100071.00;4951452;28;20048;-81
2023/07/30 02:07:31;;;;;;;5.55;3.53;;;;;;;14.49;100.00;100075.47;4998801;28;20043;-81
2023/07/30 02:09:58;;;;;;;3.13;2.83;;;;;;;14.41;100.00;100074.06;4905986;28;20072;-81
2023/07/30 02:12:25;;;;;;;5.03;3.60;;;;;;;14.35;100.00;100081.34;4911675;29;20094;-80
2023/07/30 02:14:52;;;;;;;6.85;4.25;;;;;;;14.34;100.00;100092.06;4931295;28;20068;-83
2023/07/30 02:17:18;;;;;;;3.10;2.80;;;;;;;14.28;100.00;100087.88;5013188;28;20043;-81
2023/07/30 02:19:45;;;;;;;4.40;3.75;;;;;;;14.30;100.00;100094.00;4930778;28;20044;-81
2023/07/30 02:22:12;;;;;;;4.63;3.97;;;;;;;14.34;100.00;100092.91;4999334;28;20039;-81
2023/07/30 02:24:38;;;;;;;3.35;3.03;;;;;;;14.29;100.00;100092.28;4902557;28;20054;-80
2023/07/30 02:27:05;;;;;;;6.95;3.83;;;;;;;14.25;100.00;100092.47;4918361;28;20077;-82
2023/07/30 02:29:33;;;;;;;3.70;3.40;;;;;;;14.22;100.00;100093.47;4922699;28;20054;-80
2023/07/30 02:32:00;;;;;;;4.65;3.65;;;;;;;14.23;100.00;100097.88;4936869;28;20098;-79
2023/07/30 02:34:27;;;;;;;4.80;3.45;;;;;;;14.15;100.00;100091.16;5020879;28;20035;-79
2023/07/30 02:36:53;;;;;;;5.20;3.25;;;;;;;14.13;100.00;100090.38;4974107;28;20043;-79
2023/07/30 02:39:20;;;;;;;4.28;3.42;;;;;;;14.13;100.00;100088.59;5021696;28;20036;-80
2023/07/30 02:41:47;;;;;;;4.93;3.40;;;;;;;14.06;100.00;100098.59;5002032;28;20071;-79
2023/07/30 02:44:14;;;;;;;5.50;3.45;;;;;;;14.01;100.00;100097.94;4916845;28;20044;-80
2023/07/30 02:46:41;;;;;;;4.32;3.30;;;;;;;14.06;100.00;100103.91;4939793;28;20423;-80
2023/07/30 02:49:08;;;;;;;3.63;3.33;;;;;;;14.03;100.00;100105.81;4929847;28;20097;-79
2023/07/30 02:51:35;;;;;;;3.88;3.47;;;;;;;13.97;100.00;100099.00;4940758;28;20472;-79
2023/07/30 02:54:07;;;;;;;5.63;3.65;;;;;;;14.03;100.00;100101.38;5001793;28;20054;-79
2023/07/30 02:56:34;;;;;;;3.70;3.33;;;;;;;14.00;100.00;100098.00;4899349;28;20094;-79
2023/07/30 02:59:01;;;;;;;4.47;3.55;;;;;;;13.95;100.00;100107.94;4997249;28;20048;-78
2023/07/30 03:01:28;;;;;;;5.03;3.92;;;;;;;13.93;100.00;100105.38;4894036;28;20046;-79
2023/07/30 03:03:55;;;;;;;4.00;3.33;;;;;;;13.95;100.00;100102.63;4939377;28;20048;-78
2023/07/30 03:06:21;;;;;;;4.50;3.55;;;;;;;13.91;100.00;100098.41;4928963;28;20749;-79
2023/07/30 03:08:48;;;;;;;5.45;3.40;;;;;;;13.89;100.00;100098.47;4930286;28;20043;-78
2023/07/30 03:11:15;;;;;;;5.18;3.90;;;;;;;13.87;100.00;100099.44;5016276;28;20043;-78
2023/07/30 03:13:42;;;;;;;4.68;3.60;;;;;;;13.83;100.00;100100.53;4934315;28;20417;-79
2023/07/30 03:16:08;;;;;;;4.30;3.38;;;;;;;13.85;100.00;100099.53;4937159;28;20504;-79
2023/07/30 03:18:35;;;;;;;4.45;3.90;;;;;;;13.80;100.00;100097.06;4997054;28;20067;-79
2023/07/30 03:21:03;;;;;;;3.80;3.40;;;;;;;13.70;100.00;100105.47;4957156;28;20506;-77
2023/07/30 03:23:30;;;;;;;4.25;3.38;;;;;;;13.63;100.00;100104.03;5015550;28;20044;-79
2023/07/30 03:25:57;;;;;;;5.55;3.25;;;;;;;13.63;100.00;100106.69;4916053;28;20039;-80
2023/07/30 03:28:24;;;;;;;7.57;3.90;;;;;;;13.63;100.00;100106.69;4913337;28;20057;-80
2023/07/30 03:30:51;;;;;;;4.90;3.45;;;;;;;13.66;100.00;100114.50;5010123;28;20687;-80
2023/07/30 03:33:18;;;;;;;4.85;3.85;;;;;;;13.59;100.00;100119.19;5001597;28;21262;-80
2023/07/30 03:35:44;;;;;;;8.75;3.60;;;;;;;13.59;100.00;100108.59;4919344;28;20044;-80
2023/07/30 03:38:11;;;;;;;5.03;3.60;;;;;;;13.61;100.00;100109.38;4908178;29;20661;-81
2023/07/30 03:40:38;;;;;;;4.40;3.03;;;;;;;13.59;100.00;100113.03;4916793;28;20051;-80
2023/07/30 03:43:05;;;;;;;4.57;3.53;;;;;;;13.57;100.00;100110.44;4939636;28;20409;-81
2023/07/30 03:45:32;;;;;;;6.53;3.95;;;;;;;13.59;100.00;100108.59;5016898;28;20302;-80
2023/07/30 03:47:59;;;;;;;6.45;3.78;;;;;;;13.62;100.00;100108.47;4926000;28;20044;-80
2023/07/30 03:50:26;;;;;;;5.45;3.65;;;;;;;13.60;100.00;100110.31;5004433;28;20063;-81
2023/07/30 03:52:53;;;;;;;4.43;3.90;;;;;;;13.66;100.00;100110.06;4928171;29;20421;-81
2023/07/30 03:55:19;;;;;;;4.68;4.22;;;;;;;13.66;100.00;100114.50;5001984;28;20094;-81
2023/07/30 03:57:46;;;;;;;5.70;4.15;;;;;;;13.62;100.00;100113.78;4990156;28;20056;-80
2023/07/30 04:00:13;;;;;;;5.57;3.60;;;;;;;13.67;100.00;100111.78;4926925;28;20049;-81
2023/07/30 04:02:40;;;;;;;4.80;3.72;;;;;;;13.78;100.00;100114.84;4942590;28;20501;-82
2023/07/30 04:05:07;;;;;;;5.43;3.97;;;;;;;13.84;100.00;100113.72;4925380;28;20058;-82
2023/07/30 04:07:34;;;;;;;4.75;3.55;;;;;;;13.84;100.00;100115.53;4937200;28;20107;-81
2023/07/30 04:10:03;;;;;;;4.90;3.85;;;;;;;13.78;100.00;100114.84;4933464;28;20043;-80
2023/07/30 04:12:29;;;;;;;7.60;3.55;;;;;;;13.81;100.00;100119.19;5014721;28;20574;-81
2023/07/30 04:14:56;;;;;;;4.28;3.88;;;;;;;13.79;100.00;100127.22;4922314;29;20055;-79
2023/07/30 04:17:23;;;;;;;4.68;3.20;;;;;;;13.84;100.00;100134.09;5019610;28;20039;-80
2023/07/30 04:19:49;;;;;;;3.63;3.10;;;;;;;13.89;100.00;100135.66;4914253;28;20054;-81
2023/07/30 04:22:16;;;;;;;4.03;3.63;;;;;;;13.93;100.00;100136.38;5019696;28;20146;-80
2023/07/30 04:24:43;;;;;;;4.45;3.78;;;;;;;13.90;100.00;100132.06;4934697;28;20059;-81
2023/07/30 04:27:10;;;;;;;8.23;4.93;;;;;;;13.93;100.00;100137.22;4950509;28;20039;-80
2023/07/30 04:29:37;;;;;;;4.00;3.60;;;;;;;13.97;100.00;100136.19;4929945;28;20054;-81
2023/07/30 04:32:04;;;;;;;5.03;3.80;;;;;;;14.11;100.00;100140.88;4921574;29;20040;-80
2023/07/30 04:34:30;;;;;;;3.88;3.47;;;;;;;14.21;100.00;100138.69;4923277;28;20058;-81
2023/07/30 04:36:57;;;;;;;4.00;3.15;;;;;;;14.23;100.00;100147.47;4988854;28;20126;-81
2023/07/30 04:39:24;;;;;;;3.95;3.38;;;;;;;14.26;100.00;100150.00;4980171;28;20443;-80
2023/07/30 04:41:51;;;;;;;5.65;3.80;;;;;;;14.24;100.00;100151.84;4999264;28;20090;-81
2023/07/30 04:44:17;;;;;;;4.05;3.58;;;;;;;14.24;100.00;100146.53;4927959;28;20125;-80
2023/07/30 04:46:44;;;;;;;4.35;3.28;;;;;;;14.25;100.00;100149.13;4984088;28;20554;-81
2023/07/30 04:49:11;;;;;;;4.35;3.40;;;;;;;14.25;100.00;100153.59;4953375;28;20033;-80
2023/07/30 04:51:38;;;;;;;5.43;3.40;;;;;;;14.29;100.00;100152.50;5004906;28;20039;-82
2023/07/30 04:54:05;;;;;;;4.97;3.80;;;;;;;14.30;100.00;100155.13;5002086;28;20051;-83
2023/07/30 04:56:32;;;;;;;5.65;3.60;;;;;;;14.42;100.00;100148.38;4916551;28;20039;-83
2023/07/30 04:58:59;;;;;;;5.15;4.20;;;;;;;14.59;100.00;100155.63;4954026;28;20050;-82
2023/07/30 05:01:26;;;;;;;4.72;4.22;;;;;;;14.64;100.00;100151.84;5016787;28;20373;-81
2023/07/30 05:03:53;;;;;;;4.57;4.18;;;;;;;14.72;100.00;100156.81;4931278;28;20119;-81
2023/07/30 05:06:20;;;;;;;7.53;4.32;;;;;;;14.78;100.00;100163.63;4998905;28;20118;-82
2023/07/30 05:08:46;;;;;;;5.05;4.47;;;;;;;14.81;100.00;100164.38;4898385;28;20106;-80
2023/07/30 05:11:13;;;;;;;6.50;4.53;;;;;;;14.92;100.00;100164.75;4937480;28;20093;-80
2023/07/30 05:13:40;;;;;;;5.30;4.45;;;;;;;14.92;100.00;100162.09;4927359;28;20039;-81
2023/07/30 05:16:07;;;;;;;6.40;4.70;;;;;;;14.98;100.00;100166.25;4996766;28;20051;-82
2023/07/30 05:18:34;;;;;;;5.28;4.32;;;;;;;15.00;100.00;100164.38;4911124;28;20539;-80
2023/07/30 05:21:01;;;;;;;6.10;4.50;;;;;;;15.06;100.00;100164.13;4932451;28;20501;-81
2023/07/30 05:23:27;;;;;;;5.18;4.60;;;;;;;15.18;100.00;100168.84;5023040;28;20492;-78
2023/07/30 05:25:54;;;;;;;6.28;5.03;;;;;;;15.31;100.00;100165.63;4942361;28;20040;-78
2023/07/30 05:28:21;;;;;;;6.40;5.07;;;;;;;15.43;100.00;100157.88;4995593;28;20082;-78
2023/07/30 05:30:48;;;;;;;9.07;4.80;;;;;;;15.62;100.00;100163.19;4928393;28;20048;-78
2023/07/30 05:33:14;;;;;;;5.63;5.00;;;;;;;15.80;100.00;100157.91;4918136;28;20040;-78
2023/07/30 05:35:42;;;;;;;5.05;4.55;;;;;;;15.93;100.00;100167.88;4899490;28;20123;-78
2023/07/30 05:38:09;;;;;;;5.97;4.72;;;;;;;16.15;100.00;100156.13;4927455;28;20077;-79
2023/07/30 05:40:36;;;;;;;5.28;4.55;;;;;;;16.65;100.00;100152.59;4910851;28;20051;-78
2023/07/30 05:43:05;;;;;;;4.68;4.15;;;;;;;17.34;100.00;100144.38;4931852;28;20074;-78
2023/07/30 05:45:33;;;;;;;6.32;4.10;;;;;;;17.94;100.00;100144.47;4913671;28;20044;-78
2023/07/30 05:48:00;;;;;;;3.47;3.17;;;;;;;18.30;100.00;100141.41;4936526;28;20051;-77
2023/07/30 05:50:27;;;;;;;4.15;3.38;;;;;;;18.28;100.00;100144.19;4994612;28;21070;-78
2023/07/30 05:52:53;;;;;;;4.13;3.72;;;;;;;18.30;100.00;100144.09;4898384;28;20144;-78
2023/07/30 05:55:20;;;;;;;4.47;3.90;;;;;;;18.27;100.00;100137.13;5015231;28;20123;-77
2023/07/30 05:57:47;;;;;;;5.30;4.10;;;;;;;18.38;100.00;100133.78;5014787;28;20063;-78
2023/07/30 06:00:14;;;;;;;4.18;3.33;;;;;;;18.32;100.00;100139.50;4931376;28;20044;-78
2023/07/30 06:02:40;;;;;;;4.18;3.78;;;;;;;18.50;100.00;100130.38;4933280;28;20048;-78
2023/07/30 06:05:07;;;;;;;4.05;3.20;;;;;;;18.78;100.00;100140.25;4912822;28;20051;-78
2023/07/30 06:07:34;;;;;;;4.07;3.63;;;;;;;19.17;100.00;100140.47;4898317;28;20098;-79
2023/07/30 06:10:02;;;;;;;3.33;3.03;;;;;;;19.25;100.00;100139.00;4931802;28;20040;-80
2023/07/30 06:12:29;;;;;;;4.47;3.35;;;;;;;19.23;100.00;100140.09;5013779;28;20048;-80
2023/07/30 06:14:56;;;;;;;5.05;3.40;;;;;;;19.17;100.00;100135.13;4929785;28;20054;-79
2023/07/30 06:17:23;;;;;;;4.35;3.00;;;;;;;19.42;100.00;100124.53;4978475;28;20048;-80
2023/07/30 06:19:50;;;;;;;5.40;3.20;;;;;;;19.68;100.00;100131.75;4915441;28;20056;-79
2023/07/30 06:22:17;;;;;;;3.80;3.20;;;;;;;19.60;100.00;100130.56;5015485;28;20119;-80
2023/07/30 06:24:44;;;;;;;3.10;2.80;;;;;;;19.49;100.00;100136.56;4910448;28;20665;-78
2023/07/30 06:27:12;;;;;;;3.25;2.95;;;;;;;19.43;100.00;100134.31;4929725;28;20106;-79
2023/07/30 06:29:39;;;;;;;4.00;3.05;;;;;;;19.47;100.00;100138.50;5014520;28;20036;-78
2023/07/30 06:32:06;;;;;;;3.95;2.83;;;;;;;19.99;100.00;100139.53;4949780;28;20436;-82
2023/07/30 06:34:33;;;;;;;5.22;3.28;;;;;;;20.62;100.00;100136.13;4913842;28;20047;-82
2023/07/30 06:36:59;;;;;;;3.13;2.83;;;;;;;21.30;100.00;100136.56;4944830;28;20406;-82
2023/07/30 06:39:26;;;;;;;4.65;2.70;;;;;;;21.77;98.13;100139.34;4912866;28;20051;-81
2023/07/30 06:41:53;;;;;;;2.75;2.50;;;;;;;22.14;91.70;100134.78;4996284;28;20567;-81
2023/07/30 06:44:20;;;;;;;2.95;2.50;;;;;;;22.42;92.52;100137.03;4934644;28;20400;-81
2023/07/30 06:46:46;;;;;;;3.75;2.50;;;;;;;22.40;86.19;100127.38;4897922;28;20086;-81
2023/07/30 06:49:13;;;;;;;3.33;2.70;;;;;;;22.20;88.00;100131.63;4892353;28;20054;-81
2023/07/30 06:51:40;;;;;;;3.85;2.60;;;;;;;22.18;85.20;100133.56;4917261;28;20040;-82
2023/07/30 06:54:07;;;;;;;3.15;2.53;;;;;;;22.19;90.52;100127.19;4897933;28;20598;-80
2023/07/30 06:56:34;;;;;;;4.38;2.92;;;;;;;22.16;87.93;100132.81;4915551;28;20485;-81
2023/07/30 06:59:02;;;;;;;3.20;2.83;;;;;;;22.02;88.95;100130.28;4911749;28;20040;-81
2023/07/30 07:01:29;;;;;;;3.15;2.70;;;;;;;21.98;87.52;100135.06;4911642;28;20039;-82
2023/07/30 07:03:55;;;;;;;3.47;2.80;;;;;;;22.12;89.53;100129.53;4907406;28;20044;-80
2023/07/30 07:06:22;;;;;;;3.15;2.70;;;;;;;22.21;87.67;100129.78;4891638;28;20097;-80
2023/07/30 07:08:51;;;;;;;3.33;3.03;;;;;;;22.31;88.17;100138.84;4925649;28;20047;-80
2023/07/30 07:11:17;;;;;;;2.95;2.67;;;;;;;22.42;89.24;100125.41;4911743;28;20133;-80
2023/07/30 07:13:44;;;;;;;3.30;3.00;;;;;;;22.47;86.25;100134.00;4974073;28;20506;-82
2023/07/30 07:16:11;;;;;;;3.28;2.97;;;;;;;22.63;88.25;100139.91;4924505;28;20044;-82
2023/07/30 07:18:37;;;;;;;3.40;3.03;;;;;;;22.74;83.66;100139.88;5002443;28;20053;-81
2023/07/30 07:21:04;;;;;;;3.33;2.85;;;;;;;22.85;80.51;100144.44;4925733;28;20046;-82
2023/07/30 07:23:31;;;;;;;6.15;3.42;;;;;;;22.71;79.03;100136.59;5007697;28;20413;-81
2023/07/30 07:25:57;;;;;;;3.33;2.70;;;;;;;22.84;85.04;100136.47;4991587;28;20042;-80
2023/07/30 07:28:24;;;;;;;5.20;3.20;;;;;;;22.77;81.17;100138.78;4892984;28;20066;-80
2023/07/30 07:30:51;;;;;;;3.90;3.50;;;;;;;22.50;82.63;100144.50;5013142;28;20052;-82
2023/07/30 07:33:18;;;;;;;3.63;3.13;;;;;;;22.15;83.33;100145.41;4924635;28;20522;-81
2023/07/30 07:35:45;;;;;;;3.90;3.00;;;;;;;22.02;86.70;100141.03;4929238;28;20048;-81
2023/07/30 07:38:12;;;;;;;3.40;2.95;;;;;;;22.00;88.93;100140.31;4922224;28;20105;-80
2023/07/30 07:40:39;;;;;;;3.25;2.88;;;;;;;21.98;90.84;100136.88;4940229;29;20131;-81
2023/07/30 07:43:07;;;;;;;3.58;2.85;;;;;;;22.10;90.35;100127.91;4926225;28;20386;-82
2023/07/30 07:45:34;;;;;;;4.13;3.05;;;;;;;22.47;88.30;100134.00;4911477;28;20047;-80
2023/07/30 07:48:01;;;;;;;4.18;3.70;;;;;;;22.45;86.40;100131.44;4916425;28;20044;-82
2023/07/30 07:50:27;;;;;;;4.70;3.92;;;;;;;22.37;82.27;100133.88;5014096;28;20040;-81
2023/07/30 07:52:54;;;;;;;5.15;3.92;;;;;;;22.06;83.41;100132.63;4936450;28;20051;-81
2023/07/30 07:55:21;;;;;;;4.35;3.47;;;;;;;21.85;88.42;100139.63;4911113;28;20695;-82
2023/07/30 07:57:47;;;;;;;4.30;3.90;;;;;;;21.89;90.62;100142.00;4926644;28;20066;-81
2023/07/30 08:00:14;;;;;;;3.67;3.38;;;;;;;22.06;89.58;100139.84;4934378;28;20142;-80
2023/07/30 08:02:41;;;;;;;4.07;3.67;;;;;;;22.00;86.67;100151.06;5002821;28;20154;-81
2023/07/30 08:05:08;;;;;;;4.65;3.78;;;;;;;22.03;89.84;100149.03;4940129;28;20046;-81
2023/07/30 08:07:34;;;;;;;4.22;3.15;;;;;;;21.95;86.26;100145.19;4983249;28;20086;-80
2023/07/30 08:10:01;;;;;;;3.90;3.50;;;;;;;21.87;89.58;100143.09;4921139;28;20497;-81
2023/07/30 08:12:28;;;;;;;4.25;3.85;;;;;;;21.88;87.27;100142.97;4982161;28;20120;-80
2023/07/30 08:14:56;;;;;;;5.82;3.88;;;;;;;21.82;88.67;100138.03;5010843;28;20071;-81
2023/07/30 08:17:22;;;;;;;4.00;3.55;;;;;;;21.86;84.53;100134.16;4932277;29;20131;-81
2023/07/30 08:19:49;;;;;;;4.10;3.70;;;;;;;22.09;87.43;100135.13;4932295;29;20090;-80
2023/07/30 08:22:17;;;;;;;5.25;3.88;;;;;;;22.27;83.58;100134.66;4901283;28;20059;-82
2023/07/30 08:24:44;;;;;;;4.15;3.40;;;;;;;22.47;84.41;100136.69;4918001;29;20552;-84
2023/07/30 08:27:10;;;;;;;4.53;3.70;;;;;;;22.55;81.23;100136.09;5010643;28;20106;-80
2023/07/30 08:29:37;;;;;;;3.35;3.05;;;;;;;22.78;82.38;100143.19;4942540;29;20049;-82
2023/07/30 08:32:05;;;;;;;3.10;2.80;;;;;;;23.06;76.86;100135.63;4959071;28;20101;-81
2023/07/30 08:34:32;;;;;;;5.07;3.20;;;;;;;23.09;76.24;100136.25;4992402;28;20070;-82
2023/07/30 08:37:00;;;;;;;3.75;2.80;;;;;;;23.46;74.83;100136.81;4939204;29;20043;-82
2023/07/30 08:39:27;;;;;;;3.08;2.78;;;;;;;23.60;70.67;100132.97;4991987;28;20459;-82
2023/07/30 08:41:54;;;;;;;3.42;2.60;;;;;;;23.77;70.26;100136.97;4897711;29;20130;-82
2023/07/30 08:44:21;;;;;;;4.30;2.60;;;;;;;24.12;70.38;100137.53;5011984;28;20054;-83
2023/07/30 08:46:47;;;;;;;3.72;3.00;;;;;;;24.31;68.40;100133.28;4983947;28;20044;-80
2023/07/30 08:49:14;;;;;;;3.00;2.70;;;;;;;24.47;67.48;100135.50;4895133;29;20416;-80
2023/07/30 08:51:42;;;;;;;3.47;2.70;;;;;;;24.38;61.93;100132.66;4927077;29;20661;-82
2023/07/30 08:54:09;;;;;;;4.97;2.50;;;;;;;24.60;65.79;100128.94;5005549;28;20055;-81
2023/07/30 08:56:37;;;;;;;2.55;2.30;;;;;;;24.55;61.04;100127.59;4937965;28;20074;-80
2023/07/30 08:59:05;;;;;;;3.72;2.22;;;;;;;24.61;61.39;100133.34;4931636;28;20048;-81
2023/07/30 09:01:37;;;;;;;3.60;2.65;;;;;;;24.54;63.39;100132.16;4940606;28;20047;-81
2023/07/30 09:04:06;;;;;;;3.05;2.03;;;;;;;24.39;62.23;100125.41;4935661;29;20101;-81
2023/07/30 09:06:33;;;;;;;8.85;2.58;;;;;;;24.28;64.70;100144.31;4934120;29;20071;-82
2023/07/30 09:08:59;;;;;;;3.45;2.42;;;;;;;24.36;63.42;100136.47;4939816;28;20055;-82
2023/07/30 09:11:29;;;;;;;3.55;2.90;;;;;;;24.57;66.15;100140.00;4935913;29;20052;-82
2023/07/30 09:13:56;;;;;;;5.10;2.42;;;;;;;24.35;61.73;100141.00;5019393;28;20050;-80
2023/07/30 09:16:25;;;;;;;3.75;2.33;;;;;;;23.91;64.29;100147.47;4938886;28;20040;-80
2023/07/30 09:18:55;;;;;;;4.90;2.15;;;;;;;23.58;65.77;100143.00;4933555;28;20094;-81
2023/07/30 09:21:32;;;;;;;2.60;2.40;;;;;;;23.53;71.70;100145.22;4947840;29;20066;-81
2023/07/30 09:24:05;;;;;;;2.80;2.50;;;;;;;23.49;68.06;100143.78;4919292;29;20059;-81
2023/07/30 09:26:45;;;;;;;2.88;2.30;;;;;;;23.68;67.99;100137.72;5003555;28;20047;-81
2023/07/30 09:29:13;;;;;;;4.32;2.63;;;;;;;24.04;65.26;100148.13;4940352;28;20040;-82
2023/07/30 09:31:51;;;;;;;3.03;2.25;;;;;;;24.37;61.32;100141.72;5035073;28;20497;-80
2023/07/30 09:34:19;;;;;;;4.32;2.72;;;;;;;24.71;62.33;100139.63;5012922;28;20043;-81
2023/07/30 09:36:46;;;;;;;3.38;2.40;;;;;;;24.83;62.18;100140.41;4908570;29;20065;-81
2023/07/30 09:39:19;;;;;;;3.67;2.70;;;;;;;24.66;61.15;100144.59;5005365;28;20126;-80
2023/07/30 09:41:46;;;;;;;3.63;2.17;;;;;;;24.13;59.15;100159.97;4930071;29;20057;-81
2023/07/30 09:44:16;;;;;;;5.97;2.60;;;;;;;23.72;60.69;100163.47;5017122;28;20044;-84
2023/07/30 09:46:48;;;;;;;3.30;2.50;;;;;;;23.20;60.79;100159.63;5006341;28;20519;-81
2023/07/30 09:49:15;;;;;;;3.83;2.60;;;;;;;23.15;65.16;100162.69;4948207;29;20081;-82
2023/07/30 09:51:42;;;;;;;3.40;2.55;;;;;;;23.41;66.88;100160.56;4941636;28;20492;-81
2023/07/30 09:54:11;;;;;;;2.92;2.20;;;;;;;23.87;62.24;100149.53;4917348;29;20051;-84
2023/07/30 09:56:39;;;;;;;3.17;2.33;;;;;;;24.31;59.50;100146.78;5016331;28;20043;-82
2023/07/30 09:59:07;;;;;;;4.05;2.67;;;;;;;24.63;58.36;100152.97;5005251;28;20098;-81
2023/07/30 10:01:49;;;;;;;2.95;2.05;;;;;;;24.94;55.16;100142.16;4927618;29;20048;-82
2023/07/30 10:04:19;;;;;;;3.67;2.58;;;;;;;25.04;53.38;100151.19;4941707;29;20047;-84
2023/07/30 10:06:55;;;;;;;2.83;2.22;;;;;;;25.08;55.50;100147.25;4934996;28;20117;-80
2023/07/30 10:09:23;;;;;;;2.70;2.08;;;;;;;25.06;52.86;100145.69;4959057;28;20134;-84
2023/07/30 10:11:52;;;;;;;4.07;2.30;;;;;;;25.45;53.39;100154.75;5032399;28;20101;-82
2023/07/30 10:14:23;;;;;;;3.47;2.42;;;;;;;25.75;52.86;100157.41;4933781;28;20047;-83
2023/07/30 10:16:54;;;;;;;3.72;2.53;;;;;;;25.90;51.26;100157.84;5017100;28;20548;-82
2023/07/30 10:19:28;;;;;;;3.92;2.55;;;;;;;25.79;51.79;100141.72;5006657;28;20044;-81
2023/07/30 10:21:59;;;;;;;;;;;;;;;25.66;52.41;100146.53;4930670;28;20047;-80
2023/07/30 10:24:27;;;;;;;4.40;2.70;;;;;;;25.58;51.58;100143.66;4992967;28;19970;-83
2023/07/30 10:26:57;;;;;;;3.03;2.00;;;;;;;25.65;51.50;100151.09;5000369;28;20131;-83
2023/07/30 10:29:24;;;;;;;4.15;2.35;;;;;;;25.79;51.02;100160.66;4918071;29;20047;-84
2023/07/30 10:31:56;;;;;;;5.90;2.80;;;;;;;25.55;50.18;100163.72;5014632;28;20776;-82
2023/07/30 10:34:27;;;;;;;3.33;2.50;;;;;;;25.67;50.61;100148.25;5007954;28;20130;-84
2023/07/30 10:36:57;;;;;;;4.53;2.58;;;;;;;25.80;49.36;100152.41;4996738;28;20102;-82
2023/07/30 10:39:28;;;;;;;3.95;2.35;;;;;;;25.79;47.89;100152.53;4902188;28;20456;-81
2023/07/30 10:41:56;;;;;;;4.15;2.30;;;;;;;25.91;51.13;100156.00;4916887;28;20063;-81
2023/07/30 10:44:36;;;;;;;4.15;2.05;;;;;;;25.59;47.96;100164.31;4918061;28;20043;-82
2023/07/30 10:47:03;;;;;;;4.88;2.55;;;;;;;25.19;49.04;100162.50;4916909;28;20036;-81
2023/07/30 10:49:36;;;;;;;4.68;2.55;;;;;;;25.14;50.30;100157.50;4908535;28;20052;-83
2023/07/30 10:52:03;;;;;;;3.38;2.33;;;;;;;25.31;52.83;100161.41;4930928;28;20047;-83
2023/07/30 10:54:34;;;;;;;4.10;2.40;;;;;;;25.33;50.62;100164.81;5003780;28;20039;-83
2023/07/30 10:57:01;;;;;;;4.45;2.67;;;;;;;25.32;51.13;100151.44;4928144;28;20828;-82
2023/07/30 10:59:36;;;;;;;2.78;2.22;;;;;;;25.17;50.83;100146.41;5008749;28;20146;-84
2023/07/30 11:02:04;;;;;;;5.30;2.70;;;;;;;24.83;50.95;100151.22;4934982;28;20043;-82
2023/07/30 11:04:34;;;;;;;4.35;2.60;;;;;;;24.60;52.03;100153.22;4922721;28;20048;-84
2023/07/30 11:07:10;;;;;;;2.38;2.00;;;;;;;24.69;53.39;100157.84;4921828;29;20050;-80
2023/07/30 11:09:37;;;;;;;3.20;2.17;;;;;;;24.92;52.29;100152.25;4986246;28;20114;-80
2023/07/30 11:12:09;;;;;;;3.38;2.50;;;;;;;24.98;53.91;100151.72;4921281;29;20055;-82
2023/07/30 11:14:36;;;;;;;3.20;2.60;;;;;;;24.99;52.37;100154.28;4944425;28;20050;-82
2023/07/30 11:17:03;;;;;;;3.95;2.22;;;;;;;24.93;51.94;100151.25;4922814;28;20575;-83
2023/07/30 11:19:33;;;;;;;3.58;2.40;;;;;;;25.07;51.97;100159.06;4952824;28;20529;-82
2023/07/30 11:22:00;;;;;;;2.80;2.10;;;;;;;25.23;54.26;100155.84;4911100;28;20129;-81